sensor_id;sensor_type;location;lat;lon;timestamp;P1;durP1;ratioP1;P2;durP2;ratioP2
16286;SDS011;8251;53.568;10.018;2022-07-09T00:01:13;12.70;;;5.00;;
16286;SDS011;8251;53.568;10.018;2022-07-09T00:03:41;9.67;;;5.10;;
16286;SDS011;8251;53.568;10.018;2022-07-09T00:06:08;8.20;;;4.40;;
16286;SDS011;8251;53.568;10.018;2022-07-09T00:08:35;9.97;;;4.53;;
16286;SDS011;8251;53.568;10.018;2022-07-09T00:11:02;12.40;;;4.70;;
16286;SDS011;8251;53.568;10.018;2022-07-09T00:13:29;9.23;;;5.27;;
16286;SDS011;8251;53.568;10.018;2022-07-09T00:15:56;9.97;;;4.37;;
16286;SDS011;8251;53.568;10.018;2022-07-09T00:18:23;14.17;;;5.60;;
16286;SDS011;8251;53.568;10.018;2022-07-09T00:20:53;9.20;;;4.27;;
16286;SDS011;8251;53.568;10.018;2022-07-09T00:23:20;10.73;;;4.50;;
16286;SDS011;8251;53.568;10.018;2022-07-09T00:25:47;8.90;;;4.90;;
16286;SDS011;8251;53.568;10.018;2022-07-09T00:28:14;8.70;;;4.40;;
16286;SDS011;8251;53.568;10.018;2022-07-09T00:30:41;12.93;;;4.77;;
16286;SDS011;8251;53.568;10.018;2022-07-09T00:33:08;10.30;;;5.33;;
16286;SDS011;8251;53.568;10.018;2022-07-09T00:35:35;12.40;;;5.10;;
16286;SDS011;8251;53.568;10.018;2022-07-09T00:38:03;9.13;;;4.53;;
16286;SDS011;8251;53.568;10.018;2022-07-09T00:40:30;9.37;;;4.07;;
16286;SDS011;8251;53.568;10.018;2022-07-09T00:42:59;11.03;;;4.97;;
16286;SDS011;8251;53.568;10.018;2022-07-09T00:45:26;14.00;;;4.60;;
16286;SDS011;8251;53.568;10.018;2022-07-09T00:47:53;9.80;;;4.73;;
16286;SDS011;8251;53.568;10.018;2022-07-09T00:50:20;12.97;;;5.90;;
16286;SDS011;8251;53.568;10.018;2022-07-09T00:52:48;9.60;;;4.93;;
16286;SDS011;8251;53.568;10.018;2022-07-09T00:55:16;9.97;;;4.23;;
16286;SDS011;8251;53.568;10.018;2022-07-09T00:57:44;15.90;;;5.63;;
16286;SDS011;8251;53.568;10.018;2022-07-09T01:00:11;8.43;;;4.73;;
16286;SDS011;8251;53.568;10.018;2022-07-09T01:02:39;8.33;;;4.37;;
16286;SDS011;8251;53.568;10.018;2022-07-09T01:05:07;7.50;;;4.70;;
16286;SDS011;8251;53.568;10.018;2022-07-09T01:07:34;12.73;;;5.27;;
16286;SDS011;8251;53.568;10.018;2022-07-09T01:10:02;10.10;;;5.37;;
16286;SDS011;8251;53.568;10.018;2022-07-09T01:12:31;7.73;;;5.87;;
16286;SDS011;8251;53.568;10.018;2022-07-09T01:14:58;15.00;;;5.20;;
16286;SDS011;8251;53.568;10.018;2022-07-09T01:17:25;12.20;;;5.37;;
16286;SDS011;8251;53.568;10.018;2022-07-09T01:19:52;8.97;;;5.67;;
16286;SDS011;8251;53.568;10.018;2022-07-09T01:22:21;8.27;;;5.90;;
16286;SDS011;8251;53.568;10.018;2022-07-09T01:24:48;10.10;;;4.93;;
16286;SDS011;8251;53.568;10.018;2022-07-09T01:27:16;11.30;;;5.73;;
16286;SDS011;8251;53.568;10.018;2022-07-09T01:29:43;10.87;;;5.80;;
16286;SDS011;8251;53.568;10.018;2022-07-09T01:32:14;6.07;;;4.43;;
16286;SDS011;8251;53.568;10.018;2022-07-09T01:34:41;13.83;;;5.00;;
16286;SDS011;8251;53.568;10.018;2022-07-09T01:37:08;9.20;;;4.83;;
16286;SDS011;8251;53.568;10.018;2022-07-09T01:39:36;9.57;;;5.50;;
16286;SDS011;8251;53.568;10.018;2022-07-09T01:42:15;9.30;;;6.73;;
16286;SDS011;8251;53.568;10.018;2022-07-09T01:44:42;9.57;;;6.87;;
16286;SDS011;8251;53.568;10.018;2022-07-09T01:47:08;10.37;;;6.00;;
16286;SDS011;8251;53.568;10.018;2022-07-09T01:49:35;10.73;;;6.13;;
16286;SDS011;8251;53.568;10.018;2022-07-09T01:52:03;9.93;;;6.10;;
16286;SDS011;8251;53.568;10.018;2022-07-09T01:54:31;13.70;;;6.47;;
16286;SDS011;8251;53.568;10.018;2022-07-09T01:56:59;12.97;;;6.10;;
16286;SDS011;8251;53.568;10.018;2022-07-09T01:59:26;11.70;;;5.20;;
16286;SDS011;8251;53.568;10.018;2022-07-09T02:01:52;12.40;;;5.97;;
16286;SDS011;8251;53.568;10.018;2022-07-09T02:04:19;13.67;;;6.23;;
16286;SDS011;8251;53.568;10.018;2022-07-09T02:06:46;9.47;;;5.83;;
16286;SDS011;8251;53.568;10.018;2022-07-09T02:09:13;8.93;;;6.00;;
16286;SDS011;8251;53.568;10.018;2022-07-09T02:11:40;13.03;;;6.20;;
16286;SDS011;8251;53.568;10.018;2022-07-09T02:14:09;8.63;;;6.07;;
16286;SDS011;8251;53.568;10.018;2022-07-09T02:16:35;7.23;;;5.90;;
16286;SDS011;8251;53.568;10.018;2022-07-09T02:19:02;10.90;;;6.13;;
16286;SDS011;8251;53.568;10.018;2022-07-09T02:21:29;18.83;;;6.80;;
16286;SDS011;8251;53.568;10.018;2022-07-09T02:23:56;11.07;;;6.00;;
16286;SDS011;8251;53.568;10.018;2022-07-09T02:26:23;12.30;;;5.97;;
16286;SDS011;8251;53.568;10.018;2022-07-09T02:28:52;7.80;;;5.77;;
16286;SDS011;8251;53.568;10.018;2022-07-09T02:31:21;10.43;;;5.37;;
16286;SDS011;8251;53.568;10.018;2022-07-09T02:33:48;8.83;;;5.60;;
16286;SDS011;8251;53.568;10.018;2022-07-09T02:36:15;15.27;;;5.43;;
16286;SDS011;8251;53.568;10.018;2022-07-09T02:38:42;12.53;;;6.10;;
16286;SDS011;8251;53.568;10.018;2022-07-09T02:41:09;10.30;;;5.17;;
16286;SDS011;8251;53.568;10.018;2022-07-09T02:43:36;11.13;;;6.87;;
16286;SDS011;8251;53.568;10.018;2022-07-09T02:46:03;10.93;;;5.03;;
16286;SDS011;8251;53.568;10.018;2022-07-09T02:48:31;9.53;;;6.13;;
16286;SDS011;8251;53.568;10.018;2022-07-09T02:50:58;11.53;;;5.97;;
16286;SDS011;8251;53.568;10.018;2022-07-09T02:53:26;12.87;;;6.37;;
16286;SDS011;8251;53.568;10.018;2022-07-09T02:55:53;11.53;;;4.93;;
16286;SDS011;8251;53.568;10.018;2022-07-09T02:58:20;11.87;;;5.57;;
16286;SDS011;8251;53.568;10.018;2022-07-09T03:00:47;10.33;;;5.60;;
16286;SDS011;8251;53.568;10.018;2022-07-09T03:03:14;9.03;;;5.60;;
16286;SDS011;8251;53.568;10.018;2022-07-09T03:05:42;9.70;;;5.87;;
16286;SDS011;8251;53.568;10.018;2022-07-09T03:08:09;13.97;;;5.80;;
16286;SDS011;8251;53.568;10.018;2022-07-09T03:10:36;8.33;;;5.03;;
16286;SDS011;8251;53.568;10.018;2022-07-09T03:13:03;8.70;;;6.30;;
16286;SDS011;8251;53.568;10.018;2022-07-09T03:15:31;10.67;;;5.67;;
16286;SDS011;8251;53.568;10.018;2022-07-09T03:17:57;7.40;;;5.60;;
16286;SDS011;8251;53.568;10.018;2022-07-09T03:20:24;8.57;;;5.33;;
16286;SDS011;8251;53.568;10.018;2022-07-09T03:22:53;12.17;;;6.40;;
16286;SDS011;8251;53.568;10.018;2022-07-09T03:25:20;11.07;;;5.47;;
16286;SDS011;8251;53.568;10.018;2022-07-09T03:27:48;10.83;;;5.43;;
16286;SDS011;8251;53.568;10.018;2022-07-09T03:30:15;9.00;;;4.87;;
16286;SDS011;8251;53.568;10.018;2022-07-09T03:32:42;11.23;;;5.70;;
16286;SDS011;8251;53.568;10.018;2022-07-09T03:35:09;10.33;;;5.90;;
16286;SDS011;8251;53.568;10.018;2022-07-09T03:37:36;9.83;;;5.90;;
16286;SDS011;8251;53.568;10.018;2022-07-09T03:40:04;10.03;;;5.37;;
16286;SDS011;8251;53.568;10.018;2022-07-09T03:42:32;7.33;;;5.83;;
16286;SDS011;8251;53.568;10.018;2022-07-09T03:44:59;12.07;;;5.80;;
16286;SDS011;8251;53.568;10.018;2022-07-09T03:47:26;10.77;;;5.23;;
16286;SDS011;8251;53.568;10.018;2022-07-09T03:52:54;14.40;;;6.37;;
16286;SDS011;8251;53.568;10.018;2022-07-09T03:55:22;9.60;;;6.30;;
16286;SDS011;8251;53.568;10.018;2022-07-09T03:57:49;10.47;;;5.57;;
16286;SDS011;8251;53.568;10.018;2022-07-09T04:00:16;11.83;;;6.63;;
16286;SDS011;8251;53.568;10.018;2022-07-09T04:02:43;12.70;;;7.27;;
16286;SDS011;8251;53.568;10.018;2022-07-09T04:05:10;11.53;;;6.27;;
16286;SDS011;8251;53.568;10.018;2022-07-09T04:07:37;9.00;;;6.40;;
16286;SDS011;8251;53.568;10.018;2022-07-09T04:10:06;7.87;;;5.93;;
16286;SDS011;8251;53.568;10.018;2022-07-09T04:12:35;11.10;;;6.83;;
16286;SDS011;8251;53.568;10.018;2022-07-09T04:15:02;7.27;;;5.13;;
16286;SDS011;8251;53.568;10.018;2022-07-09T04:17:29;14.40;;;6.37;;
16286;SDS011;8251;53.568;10.018;2022-07-09T04:19:56;11.20;;;5.90;;
16286;SDS011;8251;53.568;10.018;2022-07-09T04:22:23;7.67;;;6.00;;
16286;SDS011;8251;53.568;10.018;2022-07-09T04:24:51;11.63;;;6.17;;
16286;SDS011;8251;53.568;10.018;2022-07-09T04:27:18;9.73;;;5.97;;
16286;SDS011;8251;53.568;10.018;2022-07-09T04:29:46;9.20;;;5.73;;
16286;SDS011;8251;53.568;10.018;2022-07-09T04:32:13;8.70;;;6.30;;
16286;SDS011;8251;53.568;10.018;2022-07-09T04:34:41;8.13;;;5.60;;
16286;SDS011;8251;53.568;10.018;2022-07-09T04:37:07;9.70;;;6.20;;
16286;SDS011;8251;53.568;10.018;2022-07-09T04:39:34;9.43;;;5.80;;
16286;SDS011;8251;53.568;10.018;2022-07-09T04:42:01;7.73;;;5.63;;
16286;SDS011;8251;53.568;10.018;2022-07-09T04:44:28;9.60;;;6.10;;
16286;SDS011;8251;53.568;10.018;2022-07-09T04:46:57;13.17;;;5.47;;
16286;SDS011;8251;53.568;10.018;2022-07-09T04:49:23;9.43;;;5.73;;
16286;SDS011;8251;53.568;10.018;2022-07-09T04:51:51;12.83;;;5.07;;
16286;SDS011;8251;53.568;10.018;2022-07-09T04:54:18;7.23;;;5.53;;
16286;SDS011;8251;53.568;10.018;2022-07-09T04:56:45;6.77;;;5.90;;
16286;SDS011;8251;53.568;10.018;2022-07-09T04:59:14;7.83;;;5.43;;
16286;SDS011;8251;53.568;10.018;2022-07-09T05:01:41;14.93;;;6.83;;
16286;SDS011;8251;53.568;10.018;2022-07-09T05:04:09;7.13;;;6.17;;
16286;SDS011;8251;53.568;10.018;2022-07-09T05:06:36;8.83;;;5.97;;
16286;SDS011;8251;53.568;10.018;2022-07-09T05:09:03;12.77;;;5.70;;
16286;SDS011;8251;53.568;10.018;2022-07-09T05:11:30;7.43;;;5.43;;
16286;SDS011;8251;53.568;10.018;2022-07-09T05:13:57;6.20;;;5.53;;
16286;SDS011;8251;53.568;10.018;2022-07-09T05:16:24;5.93;;;5.17;;
16286;SDS011;8251;53.568;10.018;2022-07-09T05:18:51;8.07;;;5.50;;
16286;SDS011;8251;53.568;10.018;2022-07-09T05:21:19;10.87;;;6.33;;
16286;SDS011;8251;53.568;10.018;2022-07-09T05:23:48;8.87;;;5.93;;
16286;SDS011;8251;53.568;10.018;2022-07-09T05:26:24;6.00;;;5.40;;
16286;SDS011;8251;53.568;10.018;2022-07-09T05:28:54;6.20;;;5.60;;
16286;SDS011;8251;53.568;10.018;2022-07-09T05:31:22;10.43;;;6.00;;
16286;SDS011;8251;53.568;10.018;2022-07-09T05:33:49;5.80;;;5.30;;
16286;SDS011;8251;53.568;10.018;2022-07-09T05:36:16;5.57;;;4.87;;
16286;SDS011;8251;53.568;10.018;2022-07-09T05:38:44;6.37;;;5.70;;
16286;SDS011;8251;53.568;10.018;2022-07-09T05:41:12;9.87;;;5.37;;
16286;SDS011;8251;53.568;10.018;2022-07-09T05:43:41;8.63;;;5.20;;
16286;SDS011;8251;53.568;10.018;2022-07-09T05:46:07;12.40;;;4.63;;
16286;SDS011;8251;53.568;10.018;2022-07-09T05:48:34;5.17;;;4.67;;
16286;SDS011;8251;53.568;10.018;2022-07-09T05:51:01;7.37;;;4.73;;
16286;SDS011;8251;53.568;10.018;2022-07-09T05:53:28;6.40;;;5.03;;
16286;SDS011;8251;53.568;10.018;2022-07-09T05:55:57;8.73;;;5.57;;
16286;SDS011;8251;53.568;10.018;2022-07-09T05:58:24;6.83;;;5.27;;
16286;SDS011;8251;53.568;10.018;2022-07-09T06:00:51;11.30;;;5.60;;
16286;SDS011;8251;53.568;10.018;2022-07-09T06:03:18;6.70;;;5.10;;
16286;SDS011;8251;53.568;10.018;2022-07-09T06:05:45;6.10;;;5.20;;
16286;SDS011;8251;53.568;10.018;2022-07-09T06:08:12;9.83;;;5.53;;
16286;SDS011;8251;53.568;10.018;2022-07-09T06:10:39;6.73;;;5.63;;
16286;SDS011;8251;53.568;10.018;2022-07-09T06:13:07;6.37;;;5.43;;
16286;SDS011;8251;53.568;10.018;2022-07-09T06:15:34;9.60;;;6.07;;
16286;SDS011;8251;53.568;10.018;2022-07-09T06:18:01;6.80;;;6.13;;
16286;SDS011;8251;53.568;10.018;2022-07-09T06:20:28;6.17;;;5.17;;
16286;SDS011;8251;53.568;10.018;2022-07-09T06:22:56;5.70;;;5.20;;
16286;SDS011;8251;53.568;10.018;2022-07-09T06:25:23;6.33;;;5.67;;
16286;SDS011;8251;53.568;10.018;2022-07-09T06:27:50;6.03;;;5.10;;
16286;SDS011;8251;53.568;10.018;2022-07-09T06:30:18;4.87;;;4.47;;
16286;SDS011;8251;53.568;10.018;2022-07-09T06:32:45;5.80;;;5.30;;
16286;SDS011;8251;53.568;10.018;2022-07-09T06:35:12;6.17;;;5.67;;
16286;SDS011;8251;53.568;10.018;2022-07-09T06:37:39;8.30;;;5.70;;
16286;SDS011;8251;53.568;10.018;2022-07-09T06:40:07;8.57;;;6.10;;
16286;SDS011;8251;53.568;10.018;2022-07-09T06:42:35;6.13;;;5.73;;
16286;SDS011;8251;53.568;10.018;2022-07-09T06:45:02;9.87;;;5.93;;
16286;SDS011;8251;53.568;10.018;2022-07-09T06:47:33;7.73;;;6.07;;
16286;SDS011;8251;53.568;10.018;2022-07-09T06:50:06;8.70;;;5.93;;
16286;SDS011;8251;53.568;10.018;2022-07-09T06:52:37;9.40;;;5.60;;
16286;SDS011;8251;53.568;10.018;2022-07-09T06:55:04;10.03;;;5.00;;
16286;SDS011;8251;53.568;10.018;2022-07-09T06:57:31;5.33;;;4.83;;
16286;SDS011;8251;53.568;10.018;2022-07-09T06:59:58;6.33;;;5.10;;
16286;SDS011;8251;53.568;10.018;2022-07-09T07:02:25;8.43;;;5.13;;
16286;SDS011;8251;53.568;10.018;2022-07-09T07:04:53;6.33;;;5.80;;
16286;SDS011;8251;53.568;10.018;2022-07-09T07:07:20;7.27;;;5.23;;
16286;SDS011;8251;53.568;10.018;2022-07-09T07:09:47;5.10;;;4.60;;
16286;SDS011;8251;53.568;10.018;2022-07-09T07:12:14;5.87;;;5.20;;
16286;SDS011;8251;53.568;10.018;2022-07-09T07:14:41;7.83;;;5.30;;
16286;SDS011;8251;53.568;10.018;2022-07-09T07:17:08;5.10;;;4.70;;
16286;SDS011;8251;53.568;10.018;2022-07-09T07:19:35;7.93;;;5.17;;
16286;SDS011;8251;53.568;10.018;2022-07-09T07:22:04;5.73;;;5.07;;
16286;SDS011;8251;53.568;10.018;2022-07-09T07:24:31;5.40;;;4.87;;
16286;SDS011;8251;53.568;10.018;2022-07-09T07:26:57;8.40;;;5.30;;
16286;SDS011;8251;53.568;10.018;2022-07-09T07:29:25;6.43;;;5.17;;
16286;SDS011;8251;53.568;10.018;2022-07-09T07:31:52;8.30;;;5.30;;
16286;SDS011;8251;53.568;10.018;2022-07-09T07:34:19;6.70;;;5.50;;
16286;SDS011;8251;53.568;10.018;2022-07-09T07:36:48;7.00;;;4.93;;
16286;SDS011;8251;53.568;10.018;2022-07-09T07:39:17;5.20;;;4.70;;
16286;SDS011;8251;53.568;10.018;2022-07-09T07:41:44;5.43;;;4.93;;
16286;SDS011;8251;53.568;10.018;2022-07-09T07:44:11;5.27;;;4.70;;
16286;SDS011;8251;53.568;10.018;2022-07-09T07:46:37;7.23;;;4.67;;
16286;SDS011;8251;53.568;10.018;2022-07-09T07:49:04;6.43;;;4.37;;
16286;SDS011;8251;53.568;10.018;2022-07-09T07:51:31;6.50;;;5.47;;
16286;SDS011;8251;53.568;10.018;2022-07-09T07:53:58;9.40;;;5.87;;
16286;SDS011;8251;53.568;10.018;2022-07-09T07:56:27;4.77;;;4.33;;
16286;SDS011;8251;53.568;10.018;2022-07-09T07:58:54;6.37;;;4.80;;
16286;SDS011;8251;53.568;10.018;2022-07-09T08:01:21;7.03;;;4.80;;
16286;SDS011;8251;53.568;10.018;2022-07-09T08:03:48;4.87;;;4.57;;
16286;SDS011;8251;53.568;10.018;2022-07-09T08:06:15;4.80;;;4.40;;
16286;SDS011;8251;53.568;10.018;2022-07-09T08:08:42;4.90;;;4.60;;
16286;SDS011;8251;53.568;10.018;2022-07-09T08:11:09;7.80;;;3.83;;
16286;SDS011;8251;53.568;10.018;2022-07-09T08:13:37;4.77;;;4.47;;
16286;SDS011;8251;53.568;10.018;2022-07-09T08:16:05;3.90;;;3.60;;
16286;SDS011;8251;53.568;10.018;2022-07-09T08:18:32;5.33;;;4.57;;
16286;SDS011;8251;53.568;10.018;2022-07-09T08:20:59;7.50;;;4.50;;
16286;SDS011;8251;53.568;10.018;2022-07-09T08:23:26;4.70;;;4.23;;
16286;SDS011;8251;53.568;10.018;2022-07-09T08:25:53;4.93;;;4.50;;
16286;SDS011;8251;53.568;10.018;2022-07-09T08:28:20;6.47;;;4.27;;
16286;SDS011;8251;53.568;10.018;2022-07-09T08:30:49;4.27;;;3.87;;
16286;SDS011;8251;53.568;10.018;2022-07-09T08:33:15;4.67;;;4.10;;
16286;SDS011;8251;53.568;10.018;2022-07-09T08:35:42;4.83;;;4.40;;
16286;SDS011;8251;53.568;10.018;2022-07-09T08:38:09;6.30;;;5.10;;
16286;SDS011;8251;53.568;10.018;2022-07-09T08:40:36;4.57;;;4.27;;
16286;SDS011;8251;53.568;10.018;2022-07-09T08:43:05;5.97;;;4.60;;
16286;SDS011;8251;53.568;10.018;2022-07-09T08:45:38;5.87;;;4.13;;
16286;SDS011;8251;53.568;10.018;2022-07-09T08:48:09;4.23;;;4.00;;
16286;SDS011;8251;53.568;10.018;2022-07-09T08:50:35;4.53;;;4.13;;
16286;SDS011;8251;53.568;10.018;2022-07-09T08:53:06;7.67;;;4.70;;
16286;SDS011;8251;53.568;10.018;2022-07-09T08:55:35;6.30;;;4.20;;
16286;SDS011;8251;53.568;10.018;2022-07-09T08:58:10;4.10;;;3.90;;
16286;SDS011;8251;53.568;10.018;2022-07-09T09:00:42;6.50;;;3.23;;
16286;SDS011;8251;53.568;10.018;2022-07-09T09:03:11;5.78;;;3.65;;
16286;SDS011;8251;53.568;10.018;2022-07-09T09:05:38;6.53;;;3.90;;
16286;SDS011;8251;53.568;10.018;2022-07-09T09:08:16;3.80;;;3.50;;
16286;SDS011;8251;53.568;10.018;2022-07-09T09:10:45;4.30;;;3.40;;
16286;SDS011;8251;53.568;10.018;2022-07-09T09:13:13;4.72;;;4.30;;
16286;SDS011;8251;53.568;10.018;2022-07-09T09:15:42;4.20;;;3.90;;
16286;SDS011;8251;53.568;10.018;2022-07-09T09:18:10;5.97;;;3.83;;
16286;SDS011;8251;53.568;10.018;2022-07-09T09:20:38;4.53;;;3.50;;
16286;SDS011;8251;53.568;10.018;2022-07-09T09:23:16;4.03;;;3.13;;
16286;SDS011;8251;53.568;10.018;2022-07-09T09:25:43;3.95;;;3.65;;
16286;SDS011;8251;53.568;10.018;2022-07-09T09:28:11;3.95;;;3.65;;
16286;SDS011;8251;53.568;10.018;2022-07-09T09:30:40;4.43;;;4.03;;
16286;SDS011;8251;53.568;10.018;2022-07-09T09:33:13;5.75;;;3.83;;
16286;SDS011;8251;53.568;10.018;2022-07-09T09:35:42;4.43;;;4.05;;
16286;SDS011;8251;53.568;10.018;2022-07-09T09:38:10;4.10;;;3.75;;
16286;SDS011;8251;53.568;10.018;2022-07-09T09:40:37;3.92;;;3.50;;
16286;SDS011;8251;53.568;10.018;2022-07-09T09:43:10;4.30;;;3.78;;
16286;SDS011;8251;53.568;10.018;2022-07-09T09:45:38;5.30;;;4.00;;
16286;SDS011;8251;53.568;10.018;2022-07-09T09:48:05;4.28;;;3.88;;
16286;SDS011;8251;53.568;10.018;2022-07-09T09:50:34;3.50;;;3.30;;
16286;SDS011;8251;53.568;10.018;2022-07-09T09:53:02;3.45;;;3.15;;
16286;SDS011;8251;53.568;10.018;2022-07-09T09:55:30;3.53;;;3.30;;
16286;SDS011;8251;53.568;10.018;2022-07-09T09:57:58;3.25;;;3.05;;
16286;SDS011;8251;53.568;10.018;2022-07-09T10:00:25;4.03;;;2.90;;
16286;SDS011;8251;53.568;10.018;2022-07-09T10:02:54;3.50;;;3.20;;
16286;SDS011;8251;53.568;10.018;2022-07-09T10:05:27;6.70;;;3.65;;
16286;SDS011;8251;53.568;10.018;2022-07-09T10:08:00;4.25;;;3.03;;
16286;SDS011;8251;53.568;10.018;2022-07-09T10:10:27;3.75;;;3.03;;
16286;SDS011;8251;53.568;10.018;2022-07-09T10:12:54;3.47;;;3.17;;
16286;SDS011;8251;53.568;10.018;2022-07-09T10:15:21;3.85;;;3.55;;
16286;SDS011;8251;53.568;10.018;2022-07-09T10:17:51;4.40;;;4.00;;
16286;SDS011;8251;53.568;10.018;2022-07-09T10:20:28;3.85;;;3.65;;
16286;SDS011;8251;53.568;10.018;2022-07-09T10:23:00;4.15;;;3.75;;
16286;SDS011;8251;53.568;10.018;2022-07-09T10:25:29;3.45;;;3.15;;
16286;SDS011;8251;53.568;10.018;2022-07-09T10:27:57;3.08;;;2.88;;
16286;SDS011;8251;53.568;10.018;2022-07-09T10:30:25;6.82;;;3.40;;
16286;SDS011;8251;53.568;10.018;2022-07-09T10:33:03;3.65;;;3.35;;
16286;SDS011;8251;53.568;10.018;2022-07-09T10:35:38;6.13;;;3.13;;
16286;SDS011;8251;53.568;10.018;2022-07-09T10:38:07;2.80;;;2.58;;
16286;SDS011;8251;53.568;10.018;2022-07-09T10:40:39;2.42;;;2.20;;
16286;SDS011;8251;53.568;10.018;2022-07-09T10:43:07;2.50;;;2.30;;
16286;SDS011;8251;53.568;10.018;2022-07-09T10:45:36;2.72;;;2.53;;
16286;SDS011;8251;53.568;10.018;2022-07-09T10:48:04;4.47;;;2.88;;
16286;SDS011;8251;53.568;10.018;2022-07-09T10:50:35;3.72;;;2.83;;
16286;SDS011;8251;53.568;10.018;2022-07-09T10:53:03;9.98;;;3.65;;
16286;SDS011;8251;53.568;10.018;2022-07-09T10:55:31;5.18;;;3.10;;
16286;SDS011;8251;53.568;10.018;2022-07-09T10:57:59;4.32;;;3.92;;
16286;SDS011;8251;53.568;10.018;2022-07-09T11:00:29;4.43;;;3.33;;
16286;SDS011;8251;53.568;10.018;2022-07-09T11:03:02;4.07;;;3.78;;
16286;SDS011;8251;53.568;10.018;2022-07-09T11:05:31;3.67;;;3.28;;
16286;SDS011;8251;53.568;10.018;2022-07-09T11:08:00;4.25;;;2.70;;
16286;SDS011;8251;53.568;10.018;2022-07-09T11:10:29;3.50;;;2.67;;
16286;SDS011;8251;53.568;10.018;2022-07-09T11:13:04;5.43;;;2.70;;
16286;SDS011;8251;53.568;10.018;2022-07-09T11:15:32;3.67;;;2.97;;
16286;SDS011;8251;53.568;10.018;2022-07-09T11:18:01;3.90;;;2.95;;
16286;SDS011;8251;53.568;10.018;2022-07-09T11:20:30;5.47;;;2.75;;
16286;SDS011;8251;53.568;10.018;2022-07-09T11:22:58;11.13;;;3.17;;
16286;SDS011;8251;53.568;10.018;2022-07-09T11:25:26;4.35;;;2.42;;
16286;SDS011;8251;53.568;10.018;2022-07-09T11:27:56;8.30;;;4.13;;
16286;SDS011;8251;53.568;10.018;2022-07-09T11:30:24;4.22;;;2.90;;
16286;SDS011;8251;53.568;10.018;2022-07-09T11:32:54;2.95;;;2.70;;
16286;SDS011;8251;53.568;10.018;2022-07-09T11:35:28;2.42;;;2.30;;
16286;SDS011;8251;53.568;10.018;2022-07-09T11:37:56;0.75;;;0.73;;
16286;SDS011;8251;53.568;10.018;2022-07-09T11:40:26;1.63;;;0.80;;
16286;SDS011;8251;53.568;10.018;2022-07-09T11:42:53;1.30;;;0.80;;
16286;SDS011;8251;53.568;10.018;2022-07-09T11:45:23;1.80;;;0.85;;
16286;SDS011;8251;53.568;10.018;2022-07-09T11:48:01;1.77;;;0.60;;
16286;SDS011;8251;53.568;10.018;2022-07-09T11:50:31;1.05;;;0.98;;
16286;SDS011;8251;53.568;10.018;2022-07-09T11:52:59;1.88;;;0.88;;
16286;SDS011;8251;53.568;10.018;2022-07-09T11:55:29;1.45;;;0.75;;
16286;SDS011;8251;53.568;10.018;2022-07-09T11:58:02;1.52;;;0.60;;
16286;SDS011;8251;53.568;10.018;2022-07-09T12:00:32;0.90;;;0.90;;
16286;SDS011;8251;53.568;10.018;2022-07-09T12:03:01;2.15;;;1.55;;
16286;SDS011;8251;53.568;10.018;2022-07-09T12:05:30;0.85;;;0.80;;
16286;SDS011;8251;53.568;10.018;2022-07-09T12:08:01;0.70;;;0.70;;
16286;SDS011;8251;53.568;10.018;2022-07-09T12:10:30;5.18;;;1.15;;
16286;SDS011;8251;53.568;10.018;2022-07-09T12:13:00;1.77;;;0.70;;
16286;SDS011;8251;53.568;10.018;2022-07-09T12:15:28;0.80;;;0.80;;
16286;SDS011;8251;53.568;10.018;2022-07-09T12:17:56;0.90;;;0.70;;
16286;SDS011;8251;53.568;10.018;2022-07-09T12:20:25;5.72;;;1.10;;
16286;SDS011;8251;53.568;10.018;2022-07-09T12:22:55;2.10;;;0.98;;
16286;SDS011;8251;53.568;10.018;2022-07-09T12:25:22;1.67;;;0.98;;
16286;SDS011;8251;53.568;10.018;2022-07-09T12:27:50;2.28;;;1.17;;
16286;SDS011;8251;53.568;10.018;2022-07-09T12:30:18;2.75;;;1.40;;
16286;SDS011;8251;53.568;10.018;2022-07-09T12:32:46;3.15;;;1.70;;
16286;SDS011;8251;53.568;10.018;2022-07-09T12:35:15;6.43;;;2.72;;
16286;SDS011;8251;53.568;10.018;2022-07-09T12:37:48;12.63;;;3.38;;
16286;SDS011;8251;53.568;10.018;2022-07-09T12:40:21;4.15;;;2.33;;
16286;SDS011;8251;53.568;10.018;2022-07-09T12:42:48;2.90;;;2.17;;
16286;SDS011;8251;53.568;10.018;2022-07-09T12:45:15;2.53;;;2.33;;
16286;SDS011;8251;53.568;10.018;2022-07-09T12:47:44;5.57;;;3.10;;
16286;SDS011;8251;53.568;10.018;2022-07-09T12:50:11;5.22;;;2.78;;
16286;SDS011;8251;53.568;10.018;2022-07-09T12:52:40;2.95;;;2.65;;
16286;SDS011;8251;53.568;10.018;2022-07-09T12:55:08;3.50;;;3.15;;
16286;SDS011;8251;53.568;10.018;2022-07-09T12:57:35;3.72;;;1.50;;
16286;SDS011;8251;53.568;10.018;2022-07-09T13:00:03;3.75;;;2.58;;
16286;SDS011;8251;53.568;10.018;2022-07-09T13:02:31;3.67;;;2.72;;
16286;SDS011;8251;53.568;10.018;2022-07-09T13:04:59;12.32;;;3.58;;
16286;SDS011;8251;53.568;10.018;2022-07-09T13:07:26;3.10;;;2.80;;
16286;SDS011;8251;53.568;10.018;2022-07-09T13:09:54;5.78;;;3.70;;
16286;SDS011;8251;53.568;10.018;2022-07-09T13:12:21;2.83;;;2.63;;
16286;SDS011;8251;53.568;10.018;2022-07-09T13:14:49;6.68;;;2.63;;
16286;SDS011;8251;53.568;10.018;2022-07-09T13:17:16;5.00;;;2.90;;
16286;SDS011;8251;53.568;10.018;2022-07-09T13:19:42;3.05;;;2.85;;
16286;SDS011;8251;53.568;10.018;2022-07-09T13:22:13;2.50;;;2.30;;
16286;SDS011;8251;53.568;10.018;2022-07-09T13:24:44;4.38;;;2.67;;
16286;SDS011;8251;53.568;10.018;2022-07-09T13:27:13;3.42;;;2.30;;
16286;SDS011;8251;53.568;10.018;2022-07-09T13:29:43;2.67;;;2.08;;
16286;SDS011;8251;53.568;10.018;2022-07-09T13:32:10;3.28;;;2.42;;
16286;SDS011;8251;53.568;10.018;2022-07-09T13:34:39;2.75;;;2.55;;
16286;SDS011;8251;53.568;10.018;2022-07-09T13:37:13;4.88;;;2.10;;
16286;SDS011;8251;53.568;10.018;2022-07-09T13:39:45;4.78;;;2.40;;
16286;SDS011;8251;53.568;10.018;2022-07-09T13:42:12;4.50;;;2.65;;
16286;SDS011;8251;53.568;10.018;2022-07-09T13:44:39;4.35;;;0.95;;
16286;SDS011;8251;53.568;10.018;2022-07-09T13:47:06;1.55;;;1.00;;
16286;SDS011;8251;53.568;10.018;2022-07-09T13:49:33;2.80;;;0.88;;
16286;SDS011;8251;53.568;10.018;2022-07-09T13:52:00;1.77;;;0.98;;
16286;SDS011;8251;53.568;10.018;2022-07-09T13:54:29;2.58;;;1.20;;
16286;SDS011;8251;53.568;10.018;2022-07-09T13:56:59;3.15;;;1.10;;
16286;SDS011;8251;53.568;10.018;2022-07-09T13:59:27;6.10;;;1.23;;
16286;SDS011;8251;53.568;10.018;2022-07-09T14:01:54;3.90;;;1.77;;
16286;SDS011;8251;53.568;10.018;2022-07-09T14:04:21;2.05;;;1.05;;
16286;SDS011;8251;53.568;10.018;2022-07-09T14:06:49;5.95;;;1.10;;
16286;SDS011;8251;53.568;10.018;2022-07-09T14:09:16;5.45;;;1.27;;
16286;SDS011;8251;53.568;10.018;2022-07-09T14:11:47;1.88;;;1.10;;
16286;SDS011;8251;53.568;10.018;2022-07-09T14:14:14;2.00;;;1.02;;
16286;SDS011;8251;53.568;10.018;2022-07-09T14:16:40;2.58;;;0.98;;
16286;SDS011;8251;53.568;10.018;2022-07-09T14:19:07;4.82;;;1.00;;
16286;SDS011;8251;53.568;10.018;2022-07-09T14:21:34;4.10;;;1.23;;
16286;SDS011;8251;53.568;10.018;2022-07-09T14:24:01;2.45;;;1.42;;
16286;SDS011;8251;53.568;10.018;2022-07-09T14:26:29;6.30;;;1.33;;
16286;SDS011;8251;53.568;10.018;2022-07-09T14:28:57;3.67;;;1.50;;
16286;SDS011;8251;53.568;10.018;2022-07-09T14:31:24;6.03;;;1.77;;
16286;SDS011;8251;53.568;10.018;2022-07-09T14:33:51;4.32;;;1.25;;
16286;SDS011;8251;53.568;10.018;2022-07-09T14:36:19;4.45;;;1.17;;
16286;SDS011;8251;53.568;10.018;2022-07-09T14:38:46;3.67;;;1.20;;
16286;SDS011;8251;53.568;10.018;2022-07-09T14:41:13;4.20;;;1.13;;
16286;SDS011;8251;53.568;10.018;2022-07-09T14:43:40;4.95;;;1.20;;
16286;SDS011;8251;53.568;10.018;2022-07-09T14:46:09;8.60;;;1.63;;
16286;SDS011;8251;53.568;10.018;2022-07-09T14:48:37;5.45;;;1.55;;
16286;SDS011;8251;53.568;10.018;2022-07-09T14:51:05;4.35;;;1.17;;
16286;SDS011;8251;53.568;10.018;2022-07-09T14:53:32;5.53;;;1.80;;